createdAt,value
2023-02-23T00:02:07.292Z,100959.72
2023-02-23T00:04:38.166Z,100964.84
2023-02-23T00:07:06.437Z,100962.38
2023-02-23T00:09:36.703Z,100950.09
2023-02-23T00:12:09.203Z,100963.41
2023-02-23T00:14:38.413Z,100960.94
2023-02-23T00:17:14.189Z,100951.94
2023-02-23T00:19:43.392Z,100955.63
2023-02-23T00:22:10.515Z,100959.94
2023-02-23T00:24:38.773Z,100943.97
2023-02-23T00:27:06.737Z,100950.91
2023-02-23T00:29:39.344Z,100952.56
2023-02-23T00:32:07.252Z,100947.25
2023-02-23T00:34:37.101Z,100942.34
2023-02-23T00:37:04.719Z,100954.59
2023-02-23T00:39:31.678Z,100943.97
2023-02-23T00:42:02.935Z,100939.69
2023-02-23T00:44:30.653Z,100943.97
2023-02-23T00:46:58.063Z,100940.50
2023-02-23T00:49:25.322Z,100943.97
2023-02-23T00:51:52.700Z,100937.44
2023-02-23T00:54:22.077Z,100946.41
2023-02-23T00:56:49.748Z,100942.13
2023-02-23T00:59:17.279Z,100946.41
2023-02-23T01:01:44.942Z,100946.63
2023-02-23T01:04:13.072Z,100954.19
2023-02-23T01:06:41.386Z,100945.59
2023-02-23T01:09:13.446Z,100938.25
2023-02-23T01:11:41.482Z,100932.31
2023-02-23T01:14:11.074Z,100927.81
2023-02-23T01:16:38.821Z,100914.31
2023-02-23T01:19:06.492Z,100928.22
2023-02-23T01:21:37.232Z,100931.91
2023-02-23T01:24:05.096Z,100921.88
2023-02-23T01:26:42.398Z,100931.50
2023-02-23T01:29:16.658Z,100922.47
2023-02-23T01:31:47.965Z,100923.50
2023-02-23T01:34:21.642Z,100927.59
2023-02-23T01:36:49.036Z,100925.97
2023-02-23T01:39:20.588Z,100928.41
2023-02-23T01:41:47.711Z,100924.13
2023-02-23T01:44:15.126Z,100918.59
2023-02-23T01:46:45.716Z,100913.06
2023-02-23T01:49:20.314Z,100915.53
2023-02-23T01:51:55.660Z,100909.19
2023-02-23T01:54:29.093Z,100912.47
2023-02-23T01:57:00.504Z,100907.16
2023-02-23T01:59:36.254Z,100904.28
2023-02-23T02:02:05.229Z,100896.50
2023-02-23T02:04:43.977Z,100898.97
2023-02-23T02:07:22.879Z,100895.47
2023-02-23T02:10:11.358Z,100893.44
2023-02-23T02:12:55.372Z,100890.78
2023-02-23T02:15:26.262Z,100900.59
2023-02-23T02:18:03.149Z,100882.41
2023-02-23T02:20:54.053Z,100890.16
2023-02-23T02:24:01.236Z,100876.06
2023-02-23T02:27:32.553Z,100879.53
2023-02-23T02:31:08.722Z,100878.91
2023-02-23T02:34:03.640Z,100871.38
2023-02-23T02:36:39.230Z,100869.94
2023-02-23T02:39:10.483Z,100863.81
2023-02-23T02:41:53.539Z,100868.50
2023-02-23T02:44:46.712Z,100874.44
2023-02-23T02:47:42.528Z,100864.44
2023-02-23T02:50:17.664Z,100865.03
2023-02-23T02:52:59.598Z,100868.50
2023-02-23T02:55:34.124Z,100857.91
2023-02-23T02:58:08.018Z,100867.91
2023-02-23T03:00:58.147Z,100860.53
2023-02-23T03:03:57.612Z,100867.09
2023-02-23T03:06:52.881Z,100856.88
2023-02-23T03:10:06.267Z,100854.38
2023-02-23T03:13:21.234Z,100860.13
2023-02-23T03:16:26.235Z,100844.59
2023-02-23T03:19:45.210Z,100847.66
2023-02-23T03:22:47.039Z,100842.56
2023-02-23T03:25:48.365Z,100846.25
2023-02-23T03:28:37.374Z,100846.25
2023-02-23T03:31:48.540Z,100845.84
2023-02-23T03:34:42.383Z,100833.59
2023-02-23T03:37:44.131Z,100840.13
2023-02-23T03:40:41.095Z,100845.03
2023-02-23T03:43:32.760Z,100842.78
2023-02-23T03:46:21.724Z,100838.50
2023-02-23T03:49:09.705Z,100837.28
2023-02-23T03:52:01.019Z,100836.66
2023-02-23T03:54:53.413Z,100823.19
2023-02-23T03:57:41.422Z,100829.53
2023-02-23T04:00:36.906Z,100830.53
2023-02-23T04:03:25.918Z,100823.00
2023-02-23T04:06:13.179Z,100824.22
2023-02-23T04:08:59.553Z,100821.97
2023-02-23T04:12:12.007Z,100820.53
2023-02-23T04:15:01.960Z,100824.63
2023-02-23T04:17:30.017Z,100816.06
2023-02-23T04:19:57.415Z,100819.53
2023-02-23T04:22:25.175Z,100827.91
2023-02-23T04:24:52.082Z,100825.66
2023-02-23T04:27:19.824Z,100830.56
2023-02-23T04:29:47.231Z,100825.66
2023-02-23T04:32:18.118Z,100822.41
2023-02-23T04:34:45.591Z,100819.94
2023-02-23T04:37:13.679Z,100823.00
2023-02-23T04:39:42.677Z,100827.72
2023-02-23T04:42:10.125Z,100821.78
2023-02-23T04:44:37.070Z,100817.69
2023-02-23T04:47:04.225Z,100811.97
2023-02-23T04:49:31.075Z,100813.38
2023-02-23T04:51:58.244Z,100807.88
2023-02-23T04:54:25.772Z,100801.31
2023-02-23T04:56:52.938Z,100806.44
2023-02-23T04:59:19.974Z,100811.94
2023-02-23T05:01:47.014Z,100804.19
2023-02-23T05:04:13.878Z,100798.25
2023-02-23T05:06:40.897Z,100804.38
2023-02-23T05:09:07.925Z,100809.28
2023-02-23T05:11:35.069Z,100803.16
2023-02-23T05:14:01.932Z,100791.94
2023-02-23T05:16:28.957Z,100795.78
2023-02-23T05:18:56.100Z,100794.38
2023-02-23T05:21:23.603Z,100795.78
2023-02-23T05:23:51.059Z,100802.31
2023-02-23T05:26:18.803Z,100796.41
2023-02-23T05:28:45.753Z,100802.91
2023-02-23T05:31:13.140Z,100802.50
2023-02-23T05:33:42.676Z,100787.00
2023-02-23T05:36:17.389Z,100801.06
2023-02-23T05:38:46.351Z,100799.84
2023-02-23T05:41:17.862Z,100805.34
2023-02-23T05:43:45.299Z,100810.03
2023-02-23T05:46:16.808Z,100807.78
2023-02-23T05:48:43.958Z,100819.59
2023-02-23T05:51:14.826Z,100817.97
2023-02-23T05:53:42.314Z,100820.22
2023-02-23T05:56:20.148Z,100825.91
2023-02-23T05:58:52.897Z,100829.56
2023-02-23T06:01:21.819Z,100833.44
2023-02-23T06:03:49.409Z,100829.75
2023-02-23T06:06:17.793Z,100835.25
2023-02-23T06:08:45.177Z,100820.16
2023-02-23T06:11:12.960Z,100833.63
2023-02-23T06:13:40.224Z,100835.00
2023-02-23T06:16:08.616Z,100832.53
2023-02-23T06:18:36.247Z,100835.00
2023-02-23T06:21:04.326Z,100839.31
2023-02-23T06:23:33.024Z,100835.00
2023-02-23T06:26:00.376Z,100836.22
2023-02-23T06:28:28.433Z,100841.13
2023-02-23T06:30:56.334Z,100843.75
2023-02-23T06:33:23.790Z,100838.31
2023-02-23T06:35:50.899Z,100833.00
2023-02-23T06:38:18.318Z,100836.88
2023-02-23T06:40:45.216Z,100841.56
2023-02-23T06:43:12.512Z,100838.31
2023-02-23T06:45:40.763Z,100845.47
2023-02-23T06:48:08.490Z,100854.69
2023-02-23T06:50:35.659Z,100854.69
2023-02-23T06:53:02.718Z,100855.94
2023-02-23T06:55:29.593Z,100852.69
2023-02-23T06:57:56.799Z,100844.94
2023-02-23T07:00:24.291Z,100846.19
2023-02-23T07:02:51.390Z,100855.19
2023-02-23T07:05:18.753Z,100847.03
2023-02-23T07:07:46.469Z,100845.81
2023-02-23T07:10:13.836Z,100843.38
2023-02-23T07:12:40.847Z,100850.78
2023-02-23T07:15:08.828Z,100853.22
2023-02-23T07:17:36.288Z,100845.88
2023-02-23T07:20:03.871Z,100851.59
2023-02-23T07:22:30.767Z,100850.16
2023-02-23T07:24:57.977Z,100837.69
2023-02-23T07:27:27.512Z,100851.38
2023-02-23T07:29:54.558Z,100844.63
2023-02-23T07:32:21.997Z,100847.06
2023-02-23T07:34:49.175Z,100840.50
2023-02-23T07:37:17.197Z,100836.59
2023-02-23T07:39:44.383Z,100839.25
2023-02-23T07:42:11.473Z,100832.69
2023-02-23T07:44:39.317Z,100835.72
2023-02-23T07:47:07.420Z,100828.72
2023-02-23T07:49:34.764Z,100833.38
2023-02-23T07:52:01.898Z,100833.59
2023-02-23T07:54:28.971Z,100838.47
2023-02-23T07:56:56.636Z,100835.56
2023-02-23T07:59:23.803Z,100838.56
2023-02-23T08:01:52.103Z,100828.94
2023-02-23T08:04:19.134Z,100832.38
2023-02-23T08:06:46.275Z,100817.19
2023-02-23T08:09:14.370Z,100829.00
2023-02-23T08:11:41.561Z,100828.13
2023-02-23T08:14:10.367Z,100828.88
2023-02-23T08:16:37.785Z,100826.56
2023-02-23T08:19:04.734Z,100814.38
2023-02-23T08:21:31.939Z,100814.53
2023-02-23T08:23:59.143Z,100819.59
2023-02-23T08:26:26.588Z,100817.47
2023-02-23T08:28:54.744Z,100823.75
2023-02-23T08:31:24.192Z,100826.72
2023-02-23T08:33:53.026Z,100827.03
2023-02-23T08:36:23.380Z,100822.66
2023-02-23T08:38:50.699Z,100812.50
2023-02-23T08:41:18.359Z,100825.09
2023-02-23T08:43:45.659Z,100823.31
2023-02-23T08:46:13.358Z,100820.38
2023-02-23T08:48:40.661Z,100823.19
2023-02-23T08:51:08.846Z,100829.22
2023-02-23T08:53:36.350Z,100832.06
2023-02-23T08:56:06.265Z,100822.25
2023-02-23T08:58:35.894Z,100822.28
2023-02-23T09:01:03.360Z,100822.91
2023-02-23T09:03:30.870Z,100811.53
2023-02-23T09:06:10.578Z,100818.31
2023-02-23T09:08:38.290Z,100821.69
2023-02-23T09:11:06.159Z,100823.81
2023-02-23T09:13:33.366Z,100825.47
2023-02-23T09:16:00.431Z,100821.28
2023-02-23T09:18:29.441Z,100819.09
2023-02-23T09:20:57.376Z,100812.56
2023-02-23T09:23:29.452Z,100815.50
2023-02-23T09:25:56.348Z,100819.94
2023-02-23T09:28:23.332Z,100821.66
2023-02-23T09:30:50.334Z,100821.19
2023-02-23T09:33:18.267Z,100820.38
2023-02-23T09:35:45.303Z,100820.13
2023-02-23T09:38:12.220Z,100812.94
2023-02-23T09:40:53.565Z,100821.88
2023-02-23T09:43:42.378Z,100813.13
2023-02-23T09:47:03.457Z,100828.13
2023-02-23T09:49:34.782Z,100820.19
2023-02-23T09:52:03.968Z,100826.09
2023-02-23T09:54:34.689Z,100823.38
2023-02-23T09:57:12.452Z,100819.91
2023-02-23T09:59:40.007Z,100818.13
2023-02-23T10:02:34.793Z,100813.16
2023-02-23T10:05:11.546Z,100813.31
2023-02-23T10:07:56.362Z,100803.88
2023-02-23T10:10:47.821Z,100813.47
2023-02-23T10:13:40.478Z,100810.25
2023-02-23T10:16:24.347Z,100800.72
2023-02-23T10:19:05.854Z,100804.88
2023-02-23T10:21:51.186Z,100796.91
2023-02-23T10:24:30.551Z,100792.59
2023-02-23T10:27:10.142Z,100794.41
2023-02-23T10:29:51.394Z,100794.25
2023-02-23T10:32:48.201Z,100788.31
2023-02-23T10:35:20.964Z,100788.56
2023-02-23T10:37:50.063Z,100782.81
2023-02-23T10:40:22.036Z,100780.84
2023-02-23T10:42:49.740Z,100792.34
2023-02-23T10:45:24.535Z,100780.38
2023-02-23T10:48:01.235Z,100779.31
2023-02-23T10:50:29.138Z,100774.75
2023-02-23T10:53:10.689Z,100773.84
2023-02-23T10:55:37.734Z,100772.22
2023-02-23T10:58:19.451Z,100775.41
2023-02-23T11:00:59.217Z,100780.97
2023-02-23T11:04:05.468Z,100764.19
2023-02-23T11:06:42.198Z,100754.53
2023-02-23T11:09:33.045Z,100755.53
2023-02-23T11:12:24.212Z,100751.19
2023-02-23T11:14:54.966Z,100744.78
2023-02-23T11:17:29.246Z,100742.28
2023-02-23T11:20:23.175Z,100749.69
2023-02-23T11:22:52.172Z,100744.00
2023-02-23T11:25:30.021Z,100755.81
2023-02-23T11:27:58.051Z,100748.91
2023-02-23T11:30:32.547Z,100740.16
2023-02-23T11:33:10.676Z,100737.88
2023-02-23T11:35:39.070Z,100738.59
2023-02-23T11:38:20.581Z,100741.69
2023-02-23T11:41:12.862Z,100732.91
2023-02-23T11:43:50.060Z,100738.63
2023-02-23T11:46:20.237Z,100728.00
2023-02-23T11:49:00.137Z,100725.47
2023-02-23T11:51:41.017Z,100718.97
2023-02-23T11:54:25.384Z,100715.34
2023-02-23T11:56:55.349Z,100720.66
2023-02-23T11:59:38.523Z,100706.56
2023-02-23T12:02:05.448Z,100707.19
2023-02-23T12:04:38.635Z,100703.56
2023-02-23T12:07:56.952Z,100698.78
2023-02-23T12:10:40.647Z,100695.53
2023-02-23T12:13:32.656Z,100696.09
2023-02-23T12:16:16.579Z,100698.69
2023-02-23T12:19:17.706Z,100694.06
2023-02-23T12:21:59.397Z,100698.63
2023-02-23T12:24:44.991Z,100692.84
2023-02-23T12:27:27.218Z,100688.22
2023-02-23T12:30:35.567Z,100692.91
2023-02-23T12:33:16.254Z,100696.03
2023-02-23T12:36:00.473Z,100698.41
2023-02-23T12:39:27.338Z,100687.69
2023-02-23T12:42:13.172Z,100683.69
2023-02-23T12:44:53.510Z,100685.03
2023-02-23T12:47:32.541Z,100684.22
2023-02-23T12:50:21.081Z,100672.19
2023-02-23T12:53:43.224Z,100679.59
2023-02-23T12:56:14.965Z,100677.53
2023-02-23T12:59:14.288Z,100677.06
2023-02-23T13:02:13.116Z,100674.53
2023-02-23T13:04:48.885Z,100680.38
2023-02-23T13:08:12.439Z,100676.97
2023-02-23T13:10:50.340Z,100675.25
2023-02-23T13:13:38.184Z,100672.16
2023-02-23T13:16:30.699Z,100668.97
2023-02-23T13:19:24.579Z,100655.75
2023-02-23T13:22:00.953Z,100656.31
2023-02-23T13:24:43.011Z,100660.09
2023-02-23T13:27:29.972Z,100656.53
2023-02-23T13:29:59.101Z,100659.78
2023-02-23T13:32:32.014Z,100651.41
2023-02-23T13:35:15.792Z,100653.06
2023-02-23T13:37:52.061Z,100654.19
2023-02-23T13:40:36.679Z,100656.66
2023-02-23T13:43:47.306Z,100649.09
2023-02-23T13:46:45.808Z,100664.56
2023-02-23T13:50:02.348Z,100667.91
2023-02-23T13:52:33.742Z,100670.38
2023-02-23T13:55:05.379Z,100662.03
2023-02-23T13:57:33.016Z,100665.53
2023-02-23T14:00:00.769Z,100676.56
2023-02-23T14:02:34.402Z,100666.06
2023-02-23T14:05:24.934Z,100679.00
2023-02-23T14:08:02.299Z,100663.38
2023-02-23T14:10:37.259Z,100665.25
2023-02-23T14:13:13.060Z,100675.22
2023-02-23T14:15:41.809Z,100681.13
2023-02-23T14:18:20.901Z,100677.84
2023-02-23T14:21:29.156Z,100674.00
2023-02-23T14:24:22.207Z,100681.47
2023-02-23T14:27:06.153Z,100682.75
2023-02-23T14:29:44.470Z,100688.09
2023-02-23T14:32:11.547Z,100678.31
2023-02-23T14:35:01.968Z,100679.31
2023-02-23T14:37:40.190Z,100694.00
2023-02-23T14:40:23.253Z,100691.50
2023-02-23T14:42:53.281Z,100695.22
2023-02-23T14:45:31.180Z,100690.06
2023-02-23T14:48:06.030Z,100694.03
2023-02-23T14:50:36.216Z,100683.50
2023-02-23T14:53:07.129Z,100686.16
2023-02-23T14:55:37.870Z,100675.09
2023-02-23T14:58:24.321Z,100682.34
2023-02-23T15:00:52.024Z,100683.38
2023-02-23T15:03:19.313Z,100672.88
2023-02-23T15:05:59.551Z,100683.94
2023-02-23T15:08:29.367Z,100693.84
2023-02-23T15:11:08.114Z,100681.72
2023-02-23T15:13:39.793Z,100685.47
2023-02-23T15:16:29.108Z,100670.66
2023-02-23T15:18:59.179Z,100675.47
2023-02-23T15:21:26.463Z,100676.00
2023-02-23T15:24:11.018Z,100676.75
2023-02-23T15:26:41.230Z,100678.34
2023-02-23T15:29:13.437Z,100686.41
2023-02-23T15:31:50.239Z,100683.63
2023-02-23T15:34:23.535Z,100682.00
2023-02-23T15:37:25.013Z,100681.66
2023-02-23T15:40:05.994Z,100673.44
2023-02-23T15:42:39.227Z,100672.59
2023-02-23T15:45:22.149Z,100673.00
2023-02-23T15:47:54.462Z,100685.25
2023-02-23T15:50:42.548Z,100671.22
2023-02-23T15:53:36.348Z,100689.41
2023-02-23T15:56:28.083Z,100685.22
2023-02-23T15:59:13.870Z,100686.47
2023-02-23T16:01:45.659Z,100683.63
2023-02-23T16:04:12.761Z,100678.19
2023-02-23T16:06:51.026Z,100684.88
2023-02-23T16:09:21.121Z,100674.31
2023-02-23T16:12:02.200Z,100679.38
2023-02-23T16:14:55.445Z,100675.00
2023-02-23T16:17:44.538Z,100675.16
2023-02-23T16:20:47.758Z,100666.06
2023-02-23T16:23:34.344Z,100669.50
2023-02-23T16:26:12.232Z,100674.22
2023-02-23T16:28:45.423Z,100672.28
2023-02-23T16:31:22.889Z,100669.59
2023-02-23T16:33:59.818Z,100665.78
2023-02-23T16:36:39.795Z,100664.91
2023-02-23T16:39:13.146Z,100666.75
2023-02-23T16:41:40.272Z,100664.56
2023-02-23T16:44:16.048Z,100670.19
2023-02-23T16:47:05.452Z,100659.94
2023-02-23T16:49:32.588Z,100672.44
2023-02-23T16:52:01.468Z,100667.56
2023-02-23T16:54:28.443Z,100667.00
2023-02-23T16:56:56.131Z,100675.75
2023-02-23T16:59:24.079Z,100669.25
2023-02-23T17:01:51.218Z,100678.34
2023-02-23T17:04:20.949Z,100678.56
2023-02-23T17:06:57.475Z,100676.88
2023-02-23T17:09:25.277Z,100675.25
2023-02-23T17:11:52.364Z,100670.47
2023-02-23T17:14:27.373Z,100672.66
2023-02-23T17:16:54.628Z,100663.72
2023-02-23T17:19:23.625Z,100670.69
2023-02-23T17:21:52.622Z,100662.59
2023-02-23T17:24:19.665Z,100677.59
2023-02-23T17:26:46.715Z,100671.34
2023-02-23T17:29:13.560Z,100675.66
2023-02-23T17:31:40.907Z,100674.03
2023-02-23T17:34:08.210Z,100673.78
2023-02-23T17:36:35.260Z,100675.09
2023-02-23T17:39:02.489Z,100672.41
2023-02-23T17:41:29.521Z,100672.06
2023-02-23T17:43:56.428Z,100673.63
2023-02-23T17:46:24.013Z,100675.47
2023-02-23T17:48:51.162Z,100671.66
2023-02-23T17:51:21.558Z,100668.75
2023-02-23T17:53:48.796Z,100672.72
2023-02-23T17:56:20.421Z,100661.69
2023-02-23T17:58:48.202Z,100667.84
2023-02-23T18:01:16.330Z,100665.16
2023-02-23T18:03:43.618Z,100659.81
2023-02-23T18:06:13.294Z,100663.38
2023-02-23T18:08:45.212Z,100663.16
2023-02-23T18:11:12.517Z,100663.16
2023-02-23T18:13:40.302Z,100659.16
2023-02-23T18:16:11.761Z,100653.56
2023-02-23T18:18:41.771Z,100659.50
2023-02-23T18:21:14.825Z,100653.91
2023-02-23T18:23:42.186Z,100658.19
2023-02-23T18:26:16.336Z,100649.91
2023-02-23T18:28:47.047Z,100649.09
2023-02-23T18:31:21.767Z,100653.16
2023-02-23T18:33:55.159Z,100648.06
2023-02-23T18:36:36.057Z,100649.69
2023-02-23T18:39:07.287Z,100648.06
2023-02-23T18:41:34.568Z,100651.78
2023-02-23T18:44:05.685Z,100650.47
2023-02-23T18:46:32.947Z,100650.97
2023-02-23T18:49:00.652Z,100650.16
2023-02-23T18:51:28.211Z,100647.41
2023-02-23T18:53:55.917Z,100653.31
2023-02-23T18:56:28.027Z,100649.84
2023-02-23T18:59:01.418Z,100651.94
2023-02-23T19:01:33.316Z,100644.41
2023-02-23T19:04:02.675Z,100653.47
2023-02-23T19:06:31.056Z,100654.06
2023-02-23T19:09:00.179Z,100658.94
2023-02-23T19:11:33.805Z,100653.91
2023-02-23T19:14:07.920Z,100646.66
2023-02-23T19:16:36.411Z,100640.50
2023-02-23T19:19:07.108Z,100643.66
2023-02-23T19:21:35.844Z,100641.81
2023-02-23T19:24:04.675Z,100643.44
2023-02-23T19:26:33.633Z,100646.09
2023-02-23T19:29:00.892Z,100634.34
2023-02-23T19:31:28.740Z,100640.25
2023-02-23T19:33:57.282Z,100628.97
2023-02-23T19:36:30.780Z,100625.50
2023-02-23T19:39:11.184Z,100629.94
2023-02-23T19:41:39.906Z,100632.63
2023-02-23T19:44:07.337Z,100623.22
2023-02-23T19:46:35.187Z,100634.75
2023-02-23T19:49:03.230Z,100627.75
2023-02-23T19:51:30.548Z,100627.75
2023-02-23T19:53:58.663Z,100634.81
2023-02-23T19:56:28.091Z,100630.75
2023-02-23T19:58:57.344Z,100635.97
2023-02-23T20:01:27.735Z,100630.34
2023-02-23T20:03:55.280Z,100622.81
2023-02-23T20:06:26.223Z,100620.44
2023-02-23T20:08:54.946Z,100624.19
2023-02-23T20:11:23.244Z,100617.69
2023-02-23T20:13:53.519Z,100622.56
2023-02-23T20:16:21.294Z,100619.63
2023-02-23T20:18:48.249Z,100619.88
2023-02-23T20:21:20.113Z,100629.38
2023-02-23T20:23:47.705Z,100628.31
2023-02-23T20:26:40.967Z,100626.13
2023-02-23T20:29:16.731Z,100637.00
2023-02-23T20:31:51.311Z,100643.34
2023-02-23T20:34:24.452Z,100643.50
2023-02-23T20:36:52.591Z,100646.09
2023-02-23T20:39:19.965Z,100637.16
2023-02-23T20:41:47.794Z,100646.25
2023-02-23T20:44:16.004Z,100640.25
2023-02-23T20:46:44.570Z,100631.56
2023-02-23T20:49:13.113Z,100640.31
2023-02-23T20:51:46.366Z,100637.28
2023-02-23T20:54:14.732Z,100639.41
2023-02-23T20:56:42.615Z,100630.47
2023-02-23T20:59:11.825Z,100624.31
2023-02-23T21:01:44.117Z,100619.91
2023-02-23T21:04:13.299Z,100624.56
2023-02-23T21:06:40.270Z,100628.28
2023-02-23T21:09:12.520Z,100626.81
2023-02-23T21:11:39.580Z,100630.53
2023-02-23T21:14:08.381Z,100628.09
2023-02-23T21:16:35.983Z,100618.34
2023-02-23T21:19:05.844Z,100625.25
2023-02-23T21:21:57.822Z,100628.97
2023-02-23T21:24:26.286Z,100624.91
2023-02-23T21:26:53.379Z,100612.00
2023-02-23T21:29:24.046Z,100618.16
2023-02-23T21:31:51.596Z,100616.06
2023-02-23T21:34:18.885Z,100616.06
2023-02-23T21:36:46.734Z,100607.13
2023-02-23T21:39:14.342Z,100605.28
2023-02-23T21:41:41.236Z,100615.16
2023-02-23T21:44:08.837Z,100615.72
2023-02-23T21:46:36.436Z,100609.81
2023-02-23T21:49:09.469Z,100608.63
2023-02-23T21:51:36.699Z,100603.75
2023-02-23T21:54:04.428Z,100605.13
2023-02-23T21:56:32.722Z,100594.09
2023-02-23T21:58:59.969Z,100605.63
2023-02-23T22:01:37.067Z,100605.13
2023-02-23T22:04:07.824Z,100594.34
2023-02-23T22:06:42.320Z,100605.03
2023-02-23T22:09:11.646Z,100589.47
2023-02-23T22:11:43.509Z,100597.03
2023-02-23T22:14:11.249Z,100594.59
2023-02-23T22:16:43.328Z,100592.47
2023-02-23T22:19:12.354Z,100590.63
2023-02-23T22:21:43.199Z,100585.28
2023-02-23T22:24:13.232Z,100583.06
2023-02-23T22:26:46.798Z,100584.69
2023-02-23T22:29:14.123Z,100584.13
2023-02-23T22:31:41.301Z,100585.97
2023-02-23T22:34:08.457Z,100573.34
2023-02-23T22:36:35.659Z,100577.63
2023-02-23T22:39:07.107Z,100574.63
2023-02-23T22:41:42.258Z,100571.94
2023-02-23T22:44:19.200Z,100578.09
2023-02-23T22:46:47.803Z,100567.88
2023-02-23T22:49:15.858Z,100562.19
2023-02-23T22:51:43.755Z,100564.88
2023-02-23T22:54:11.833Z,100559.19
2023-02-23T22:56:39.727Z,100550.03
2023-02-23T22:59:08.592Z,100550.16
2023-02-23T23:01:38.900Z,100546.91
2023-02-23T23:04:10.347Z,100557.94
2023-02-23T23:06:40.829Z,100556.91
2023-02-23T23:09:16.352Z,100548.88
2023-02-23T23:11:44.402Z,100547.25
2023-02-23T23:14:12.544Z,100551.31
2023-02-23T23:16:51.348Z,100541.91
2023-02-23T23:19:25.897Z,100543.91
2023-02-23T23:21:55.585Z,100541.56
2023-02-23T23:24:24.324Z,100545.63
2023-02-23T23:27:00.125Z,100541.91
2023-02-23T23:29:30.023Z,100526.91
2023-02-23T23:31:57.350Z,100526.91
2023-02-23T23:34:25.157Z,100533.66
2023-02-23T23:36:55.407Z,100531.78
2023-02-23T23:39:25.797Z,100525.53
2023-02-23T23:41:53.353Z,100517.41
2023-02-23T23:44:23.816Z,100519.13
2023-02-23T23:46:51.337Z,100520.44
2023-02-23T23:49:21.576Z,100530.06
2023-02-23T23:51:52.014Z,100525.53
2023-02-23T23:54:29.206Z,100520.91
2023-02-23T23:56:57.543Z,100516.59
2023-02-23T23:59:26.762Z,100524.63
